Time;durP1;ratioP1;P1;durP2;ratioP2;P2;SDS_P1;SDS_P2;PMS_P1;PMS_P2;Temp;Humidity;BMP_temperature;BMP_pressure;BME280_temperature;BME280_humidity;BME280_pressure;Samples;Min_cycle;Max_cycle;Signal;HPM_P1;HPM_P2
2023/11/22 08:54:34;;;;;;;42.00;4.55;;;;;;;18.93;70.18;103096.00;5112448;27;20964;-37
2023/11/22 08:57:00;;;;;;;37.17;4.60;;;;;;;18.98;71.16;103100.84;5106370;28;20046;-36
2023/11/22 08:59:26;;;;;;;34.08;4.00;;;;;;;19.03;71.45;103103.72;5111192;27;20055;-36
2023/11/22 09:01:51;;;;;;;30.38;3.70;;;;;;;19.09;71.77;103108.31;5098394;27;20122;-38
2023/11/22 09:04:18;;;;;;;23.85;3.72;;;;;;;19.15;71.75;103110.13;5090020;28;20567;-37
2023/11/22 09:06:44;;;;;;;14.10;3.30;;;;;;;19.19;71.41;103107.75;5099530;28;20035;-37
2023/11/22 09:09:14;;;;;;;11.23;3.10;;;;;;;19.23;71.33;103107.06;5100179;28;20082;-38
2023/11/22 09:11:40;;;;;;;14.00;3.55;;;;;;;19.29;70.86;103119.06;5099882;28;20043;-38
2023/11/22 09:14:06;;;;;;;12.15;3.50;;;;;;;19.33;70.23;103114.78;5098047;28;20020;-38
2023/11/22 09:16:36;;;;;;;8.70;4.40;;;;;;;19.37;70.17;103118.75;5097195;28;20535;-38
2023/11/22 09:19:02;;;;;;;4.25;3.00;;;;;;;19.40;69.92;103121.03;5094439;28;20486;-38
2023/11/22 09:21:27;;;;;;;12.27;3.50;;;;;;;19.44;69.98;103117.84;5095006;28;20644;-38
2023/11/22 09:23:53;;;;;;;5.88;3.40;;;;;;;19.47;69.67;103114.59;5096764;28;20011;-38
2023/11/22 09:26:18;;;;;;;5.45;3.10;;;;;;;19.49;69.22;103123.47;5098102;28;20473;-38
2023/11/22 09:28:44;;;;;;;4.15;3.13;;;;;;;19.51;69.49;103113.06;5096772;27;20111;-37
2023/11/22 09:31:11;;;;;;;7.28;3.15;;;;;;;19.53;68.90;103121.94;5100061;28;20062;-37
2023/11/22 09:33:36;;;;;;;4.32;3.10;;;;;;;19.54;69.15;103120.88;5101022;28;20475;-37
2023/11/22 09:36:03;;;;;;;4.50;3.30;;;;;;;19.54;68.94;103109.84;5098246;28;20040;-38
2023/11/22 09:38:29;;;;;;;6.10;3.25;;;;;;;19.54;68.52;103110.69;5101905;28;20027;-37
2023/11/22 09:40:54;;;;;;;5.53;3.70;;;;;;;19.54;68.46;103105.19;5101421;28;20032;-38
2023/11/22 09:43:24;;;;;;;4.80;3.58;;;;;;;19.55;68.14;103109.63;5099282;28;20143;-38
2023/11/22 09:45:50;;;;;;;6.22;3.85;;;;;;;19.55;68.40;103106.88;5094260;28;20039;-38
2023/11/22 09:48:17;;;;;;;4.60;3.45;;;;;;;19.55;68.11;103098.63;5098198;28;20031;-38
2023/11/22 09:51:01;;;;;;;5.78;3.53;;;;;;;19.56;67.93;103099.47;5098925;28;20557;-38
2023/11/22 09:53:35;;;;;;;4.25;3.47;;;;;;;19.55;68.18;103100.53;5099279;28;20040;-38
2023/11/22 09:56:06;;;;;;;4.63;3.38;;;;;;;19.55;67.71;103106.88;5099293;28;20161;-39
2023/11/22 09:58:32;;;;;;;6.35;3.60;;;;;;;19.53;68.00;103103.53;5097100;28;20112;-40
2023/11/22 10:00:59;;;;;;;3.85;3.45;;;;;;;19.52;67.59;103095.50;5105988;28;20125;-37
2023/11/22 10:03:26;;;;;;;4.88;3.60;;;;;;;19.51;67.16;103094.66;5095571;28;20103;-35
2023/11/22 10:05:52;;;;;;;8.23;4.03;;;;;;;19.52;67.14;103098.25;5086727;28;20477;-36
2023/11/22 10:08:18;;;;;;;4.95;3.70;;;;;;;19.52;67.01;103090.84;5073434;28;20441;-36
2023/11/22 10:10:46;;;;;;;5.35;3.83;;;;;;;19.52;67.06;103084.50;5079356;28;20384;-37
2023/11/22 10:13:12;;;;;;;4.32;3.78;;;;;;;19.53;66.58;103080.69;5074130;28;20024;-37
2023/11/22 10:15:38;;;;;;;5.57;3.80;;;;;;;19.53;66.42;103073.28;5079866;28;20024;-36
2023/11/22 10:18:03;;;;;;;56.95;5.40;;;;;;;19.56;66.18;103070.03;5088054;28;20074;-37
2023/11/22 10:20:39;;;;;;;10.40;4.47;;;;;;;19.59;66.56;103065.16;5082506;28;20115;-38
2023/11/22 10:23:13;;;;;;;9.85;4.50;;;;;;;19.62;66.76;103062.78;5124682;27;20047;-36
2023/11/22 10:25:49;;;;;;;9.88;3.78;;;;;;;19.66;66.31;103074.16;5096018;28;20097;-34
2023/11/22 10:28:27;;;;;;;10.95;4.00;;;;;;;19.69;66.36;103058.03;5083801;28;20036;-35
2023/11/22 10:30:53;;;;;;;10.00;4.10;;;;;;;19.72;66.42;103043.78;5087145;28;20028;-39
2023/11/22 10:33:22;;;;;;;6.78;3.90;;;;;;;19.77;66.03;103034.00;5078472;28;20034;-39
2023/11/22 10:35:49;;;;;;;5.78;3.80;;;;;;;19.78;66.03;103039.25;5089991;28;20431;-38
2023/11/22 10:38:18;;;;;;;5.95;3.88;;;;;;;19.81;66.20;103035.19;5070534;28;20043;-38
2023/11/22 10:40:45;;;;;;;8.25;4.40;;;;;;;19.83;66.25;103041.31;5075753;28;20111;-37
2023/11/22 10:43:11;;;;;;;11.40;5.10;;;;;;;19.83;66.18;103042.16;5081572;28;20036;-35
2023/11/22 10:45:38;;;;;;;11.57;5.05;;;;;;;19.84;65.83;103029.22;5086015;28;20504;-35
2023/11/22 10:48:04;;;;;;;10.57;4.95;;;;;;;19.85;66.05;103039.16;5090541;28;20028;-36
2023/11/22 10:50:30;;;;;;;7.72;3.85;;;;;;;19.88;67.39;103039.53;5084489;28;20031;-38
2023/11/22 10:52:59;;;;;;;15.73;4.38;;;;;;;19.92;68.08;103042.66;5084742;28;20032;-39
2023/11/22 10:55:26;;;;;;;14.38;5.10;;;;;;;19.95;66.85;103033.09;5085149;28;20377;-40
2023/11/22 10:57:55;;;;;;;10.98;5.05;;;;;;;19.97;66.86;103031.78;5071009;28;20413;-38
2023/11/22 11:00:22;;;;;;;11.20;5.50;;;;;;;20.00;66.64;103019.44;5097677;27;20035;-36
2023/11/22 11:02:51;;;;;;;12.63;5.35;;;;;;;20.02;66.70;103006.28;5092749;28;20020;-37
2023/11/22 11:05:22;;;;;;;11.02;5.30;;;;;;;20.05;66.66;103008.56;5077680;28;20028;-36
2023/11/22 11:07:56;;;;;;;18.55;5.30;;;;;;;20.06;66.76;103006.66;5088238;28;20059;-38
2023/11/22 11:10:22;;;;;;;11.13;4.57;;;;;;;20.03;66.18;103011.53;5083615;28;20119;-37
2023/11/22 11:12:47;;;;;;;12.57;5.47;;;;;;;20.01;66.36;103010.13;5096960;27;20016;-37
2023/11/22 11:15:14;;;;;;;10.00;5.30;;;;;;;19.99;66.44;103029.63;5081107;28;20028;-37
2023/11/22 11:17:40;;;;;;;8.13;5.03;;;;;;;19.97;66.29;103014.44;5089949;28;20055;-38
2023/11/22 11:20:06;;;;;;;16.65;5.93;;;;;;;19.94;66.25;102996.47;5071674;28;20067;-37
2023/11/22 11:22:34;;;;;;;9.15;5.50;;;;;;;19.91;66.47;102991.44;5080556;28;20027;-38
2023/11/22 11:25:05;;;;;;;7.40;5.00;;;;;;;19.90;66.55;102998.00;5072796;28;20035;-38
2023/11/22 11:27:38;;;;;;;9.93;5.18;;;;;;;19.88;66.25;103003.75;5089299;28;20035;-38
2023/11/22 11:30:32;;;;;;;10.93;4.93;;;;;;;19.87;66.64;102996.56;5083336;28;20035;-37
2023/11/22 11:32:57;;;;;;;6.93;4.45;;;;;;;19.88;66.60;102998.25;5080984;28;20518;-38
2023/11/22 11:35:38;;;;;;;6.13;4.38;;;;;;;19.87;66.54;102991.06;5083330;28;20123;-38
2023/11/22 11:38:03;;;;;;;10.10;5.20;;;;;;;19.88;66.40;102990.00;5082087;28;20031;-38
2023/11/22 11:40:34;;;;;;;9.25;5.20;;;;;;;19.87;66.43;102982.81;5076511;28;20028;-38
2023/11/22 11:42:59;;;;;;;7.57;4.63;;;;;;;19.88;66.84;102989.19;5096391;27;20027;-38
2023/11/22 11:45:25;;;;;;;9.88;4.60;;;;;;;19.87;67.77;102996.56;5079409;28;20095;-39
2023/11/22 11:47:51;;;;;;;6.32;4.30;;;;;;;19.87;68.06;102987.50;5080397;28;20016;-37
2023/11/22 11:50:16;;;;;;;7.35;5.30;;;;;;;19.87;67.86;102971.00;5084228;28;20024;-38
2023/11/22 11:52:41;;;;;;;9.18;5.70;;;;;;;19.86;67.60;102961.91;5082136;28;22290;-38
2023/11/22 11:55:07;;;;;;;11.95;5.95;;;;;;;19.85;67.24;102959.38;5078603;28;20392;-38
2023/11/22 11:57:32;;;;;;;16.40;6.35;;;;;;;19.84;67.13;102965.94;5084429;28;20116;-38
2023/11/22 11:59:59;;;;;;;40.28;9.15;;;;;;;19.82;67.36;102954.34;5063096;28;20028;-38
2023/11/22 12:02:24;;;;;;;37.80;9.88;;;;;;;19.81;67.32;102950.72;5076778;28;20127;-38
2023/11/22 12:04:50;;;;;;;36.22;10.00;;;;;;;19.81;67.29;102947.97;5082609;28;20103;-38
2023/11/22 12:07:15;;;;;;;41.58;11.02;;;;;;;19.79;67.07;102935.53;5073799;28;20357;-38
2023/11/22 12:09:41;;;;;;;36.72;9.75;;;;;;;19.77;66.92;102929.44;5084133;28;20028;-38
2023/11/22 12:12:06;;;;;;;27.33;9.20;;;;;;;19.76;67.18;102934.09;5081573;28;20395;-37
2023/11/22 12:14:33;;;;;;;36.65;9.80;;;;;;;19.75;67.23;102926.09;5075770;28;20036;-39
2023/11/22 12:16:59;;;;;;;33.50;9.68;;;;;;;19.74;67.07;102925.22;5078473;28;20032;-37
2023/11/22 12:19:28;;;;;;;24.02;8.38;;;;;;;19.73;67.53;102921.66;5083204;28;20024;-37
2023/11/22 12:21:54;;;;;;;23.52;7.85;;;;;;;19.72;67.95;102922.72;5083016;28;20028;-38
2023/11/22 12:24:19;;;;;;;21.10;7.82;;;;;;;19.72;67.62;102916.41;5087303;28;20085;-37
2023/11/22 12:26:45;;;;;;;26.30;7.32;;;;;;;19.71;67.39;102912.78;5071134;28;20033;-39
2023/11/22 12:29:14;;;;;;;24.38;8.23;;;;;;;19.69;66.94;102916.88;5089255;28;20073;-37
2023/11/22 12:31:51;;;;;;;20.20;6.93;;;;;;;19.67;66.94;102908.84;5087974;28;20039;-38
2023/11/22 12:34:17;;;;;;;19.10;6.75;;;;;;;19.66;66.75;102900.84;5080203;28;20410;-38
2023/11/22 12:36:43;;;;;;;16.23;6.90;;;;;;;19.65;66.51;102899.16;5080978;28;20027;-38
2023/11/22 12:39:20;;;;;;;13.45;6.50;;;;;;;19.64;66.80;102898.31;5080208;28;20027;-38
2023/11/22 12:41:50;;;;;;;14.75;5.93;;;;;;;19.62;66.73;102900.50;5081891;28;20048;-38
2023/11/22 12:44:16;;;;;;;16.90;6.07;;;;;;;19.62;66.42;102896.88;5070563;28;20023;-38
2023/11/22 12:47:10;;;;;;;9.90;5.30;;;;;;;19.61;66.52;102881.44;5078728;28;20028;-37
2023/11/22 12:49:45;;;;;;;14.30;5.60;;;;;;;19.61;66.63;102885.06;5093984;28;20042;-38
2023/11/22 12:52:10;;;;;;;;;;;;;;;19.59;66.56;102898.19;5069925;28;20051;-38
2023/11/22 12:54:36;;;;;;;8.88;4.95;;;;;;;19.60;66.34;102896.31;5073124;28;19968;-37
2023/11/22 12:57:02;;;;;;;10.93;5.07;;;;;;;19.58;66.29;102884.69;5099932;28;20106;-37
2023/11/22 12:59:28;;;;;;;13.15;5.07;;;;;;;19.56;66.35;102869.25;5072665;28;20213;-37
2023/11/22 13:01:54;;;;;;;10.98;5.20;;;;;;;19.55;66.41;102875.00;5086345;28;20024;-38
2023/11/22 13:04:20;;;;;;;10.10;4.97;;;;;;;19.54;66.61;102865.09;5074557;28;20020;-38
2023/11/22 13:06:45;;;;;;;9.20;4.72;;;;;;;19.53;66.20;102874.41;5087177;28;20173;-37
2023/11/22 13:09:14;;;;;;;9.05;4.18;;;;;;;19.51;66.33;102868.28;5092253;28;20654;-38
2023/11/22 13:11:42;;;;;;;7.72;3.85;;;;;;;19.52;66.17;102867.22;5077270;28;20042;-38
2023/11/22 13:14:08;;;;;;;8.73;4.18;;;;;;;19.50;66.43;102861.97;5090206;28;20028;-37
2023/11/22 13:16:34;;;;;;;7.53;4.15;;;;;;;19.49;66.11;102864.97;5080705;28;20043;-37
2023/11/22 13:19:00;;;;;;;6.10;3.83;;;;;;;19.51;66.38;102857.28;5071781;28;20144;-37
2023/11/22 13:21:26;;;;;;;7.00;4.03;;;;;;;19.50;66.60;102858.41;5091504;28;20059;-37
2023/11/22 13:23:52;;;;;;;8.93;4.10;;;;;;;19.50;66.50;102859.22;5093976;28;20055;-38
2023/11/22 13:26:17;;;;;;;6.38;4.40;;;;;;;19.50;66.49;102855.66;5077529;28;20048;-38
2023/11/22 13:28:43;;;;;;;6.82;3.63;;;;;;;19.48;66.42;102852.28;5069245;28;20035;-38
2023/11/22 13:31:09;;;;;;;13.98;3.78;;;;;;;19.47;66.45;102845.09;5098573;28;20442;-38
2023/11/22 13:33:35;;;;;;;7.95;3.50;;;;;;;19.47;66.19;102848.72;5091383;28;20024;-38
2023/11/22 13:36:00;;;;;;;7.22;3.45;;;;;;;19.47;66.65;102856.97;5079088;28;20032;-38
2023/11/22 13:38:26;;;;;;;4.75;3.10;;;;;;;19.49;66.32;102859.47;5079571;28;20111;-38
2023/11/22 13:40:51;;;;;;;5.18;3.42;;;;;;;19.49;66.36;102841.03;5069270;28;20492;-38
2023/11/22 13:43:18;;;;;;;4.57;3.10;;;;;;;19.51;66.35;102836.16;5082238;28;20034;-37
2023/11/22 13:45:45;;;;;;;4.43;3.35;;;;;;;19.54;66.40;102840.31;5076636;28;20050;-37
2023/11/22 13:48:11;;;;;;;4.78;2.95;;;;;;;19.56;66.49;102824.44;5084795;28;20346;-37
2023/11/22 13:50:37;;;;;;;5.20;3.10;;;;;;;19.57;66.50;102826.13;5087061;28;20119;-38
2023/11/22 13:53:03;;;;;;;7.13;3.03;;;;;;;19.56;66.32;102822.50;5085078;28;20040;-38
2023/11/22 13:55:29;;;;;;;4.72;2.85;;;;;;;19.57;66.34;102812.38;5086076;28;20055;-38
2023/11/22 13:57:59;;;;;;;5.28;3.05;;;;;;;19.56;66.58;102810.69;5091834;28;20484;-37
2023/11/22 14:00:29;;;;;;;5.63;2.92;;;;;;;19.55;66.29;102806.25;5105023;27;20040;-36
2023/11/22 14:02:57;;;;;;;4.07;3.00;;;;;;;19.54;66.55;102802.66;5099418;28;20019;-38
2023/11/22 14:05:26;;;;;;;5.65;2.72;;;;;;;19.53;66.66;102802.91;5083331;28;20031;-37
2023/11/22 14:07:52;;;;;;;6.00;2.95;;;;;;;19.51;66.43;102796.78;5081502;28;20027;-37
2023/11/22 14:10:18;;;;;;;3.95;2.78;;;;;;;19.50;66.49;102786.91;5086227;28;20028;-37
2023/11/22 14:12:44;;;;;;;6.50;2.90;;;;;;;19.48;66.79;102791.78;5089823;28;20024;-37
2023/11/22 14:15:11;;;;;;;4.95;2.83;;;;;;;19.47;66.55;102793.72;5095572;28;20027;-38
2023/11/22 14:17:39;;;;;;;4.90;2.88;;;;;;;19.47;66.66;102790.09;5085127;28;20032;-38
2023/11/22 14:20:06;;;;;;;4.72;2.80;;;;;;;19.48;66.61;102789.84;5085851;28;20342;-38
2023/11/22 14:22:32;;;;;;;4.53;2.80;;;;;;;19.47;66.85;102792.84;5089612;28;20574;-37
2023/11/22 14:24:57;;;;;;;5.18;2.80;;;;;;;19.47;66.57;102787.34;5082267;28;20036;-38
2023/11/22 14:27:23;;;;;;;3.95;2.90;;;;;;;19.49;66.88;102785.22;5085586;28;20413;-37
2023/11/22 14:29:51;;;;;;;3.67;2.85;;;;;;;19.49;66.75;102782.47;5089582;28;20051;-37
2023/11/22 14:32:16;;;;;;;5.57;3.03;;;;;;;19.49;66.65;102779.72;5087854;28;20062;-38
2023/11/22 14:34:45;;;;;;;3.97;2.80;;;;;;;19.48;66.71;102781.59;5086107;28;20451;-38
2023/11/22 14:37:11;;;;;;;3.22;2.63;;;;;;;19.47;66.74;102777.22;5083224;28;20103;-38
2023/11/22 14:39:38;;;;;;;3.47;2.83;;;;;;;19.45;66.74;102781.25;5077983;28;20279;-38
2023/11/22 14:42:05;;;;;;;4.25;2.90;;;;;;;19.45;66.60;102792.25;5085823;28;20012;-38
2023/11/22 14:44:31;;;;;;;4.05;2.92;;;;;;;19.42;66.97;102788.06;5081697;28;20032;-38
2023/11/22 14:46:58;;;;;;;3.83;2.97;;;;;;;19.43;66.68;102799.91;5084459;28;20050;-37
2023/11/22 14:49:23;;;;;;;10.68;2.88;;;;;;;19.43;66.75;102808.19;5099330;27;20068;-38
2023/11/22 14:51:49;;;;;;;9.65;3.15;;;;;;;19.46;67.19;102818.69;5078086;28;20099;-37
2023/11/22 14:54:14;;;;;;;24.15;3.10;;;;;;;19.50;67.58;102825.41;5082175;28;20158;-39
2023/11/22 14:56:40;;;;;;;7.72;3.28;;;;;;;19.56;67.14;102828.00;5085187;28;20468;-39
2023/11/22 14:59:06;;;;;;;11.65;3.45;;;;;;;19.61;67.31;102835.53;5080926;28;20396;-38
2023/11/22 15:01:31;;;;;;;57.63;5.28;;;;;;;19.71;68.44;102845.94;5079071;28;20035;-36
2023/11/22 15:03:56;;;;;;;4.07;3.28;;;;;;;19.82;66.98;102841.53;5089275;28;20031;-37
2023/11/22 15:06:22;;;;;;;9.55;3.78;;;;;;;20.05;66.54;102835.16;5084663;28;20107;-36
2023/11/22 15:08:48;;;;;;;5.78;3.50;;;;;;;20.25;65.90;102817.41;5085845;28;20027;-36
2023/11/22 15:11:15;;;;;;;7.53;3.30;;;;;;;20.42;64.86;102817.47;5087450;28;20111;-38
2023/11/22 15:13:41;;;;;;;5.13;3.15;;;;;;;20.55;64.20;102810.81;5089007;28;20569;-36
2023/11/22 15:16:07;;;;;;;5.15;3.13;;;;;;;20.67;64.24;102795.06;5085995;28;20024;-36
2023/11/22 15:18:32;;;;;;;5.80;3.25;;;;;;;20.76;63.60;102792.75;5084870;28;20043;-37
2023/11/22 15:20:58;;;;;;;5.47;3.10;;;;;;;20.87;63.65;102791.88;5083500;28;20012;-35
2023/11/22 15:23:23;;;;;;;3.28;2.75;;;;;;;20.96;62.81;102776.56;5063464;28;20514;-32
2023/11/22 15:25:49;;;;;;;5.68;3.22;;;;;;;21.04;62.50;102763.47;5075058;28;20035;-34
2023/11/22 15:28:22;;;;;;;7.05;3.30;;;;;;;21.11;62.57;102762.19;5082769;28;20039;-36
2023/11/22 15:30:48;;;;;;;6.78;3.28;;;;;;;21.16;62.52;102755.94;5086817;28;20400;-37
2023/11/22 15:33:18;;;;;;;4.88;3.20;;;;;;;21.17;62.26;102730.03;5080769;28;20447;-35
2023/11/22 15:35:43;;;;;;;9.98;2.90;;;;;;;21.16;62.58;102728.34;5090484;28;20058;-35
2023/11/22 15:38:09;;;;;;;6.85;3.40;;;;;;;21.13;62.54;102731.63;5086008;28;20040;-34
2023/11/22 15:40:34;;;;;;;5.28;2.95;;;;;;;21.09;62.21;102744.22;5078018;28;20570;-33
2023/11/22 15:42:59;;;;;;;4.32;2.65;;;;;;;21.03;62.44;102748.84;5093120;27;20032;-33
2023/11/22 15:45:25;;;;;;;7.45;3.03;;;;;;;20.98;62.16;102765.28;5082573;28;20055;-34
2023/11/22 15:47:50;;;;;;;4.15;3.30;;;;;;;20.93;62.51;102777.09;5087277;28;20071;-34
2023/11/22 15:50:16;;;;;;;5.45;3.28;;;;;;;20.87;61.94;102757.94;5084626;28;20055;-33
2023/11/22 15:52:42;;;;;;;5.85;3.05;;;;;;;20.81;62.42;102755.09;5082932;28;20372;-35
2023/11/22 15:55:08;;;;;;;3.97;2.85;;;;;;;20.76;62.09;102729.38;5091708;28;20027;-34
2023/11/22 15:57:34;;;;;;;5.55;2.80;;;;;;;20.71;62.37;102729.25;5081257;28;20043;-33
2023/11/22 16:00:00;;;;;;;3.33;2.60;;;;;;;20.65;62.58;102718.16;5084848;28;20599;-33
2023/11/22 16:02:27;;;;;;;4.18;2.63;;;;;;;20.61;62.57;102717.00;5078011;28;20028;-34
2023/11/22 16:04:52;;;;;;;3.38;2.85;;;;;;;20.59;62.39;102730.19;5083854;28;20479;-35
2023/11/22 16:07:18;;;;;;;3.67;2.78;;;;;;;20.55;62.85;102737.28;5078653;28;20540;-34
2023/11/22 16:09:43;;;;;;;3.38;2.80;;;;;;;20.50;62.34;102721.50;5083151;28;20122;-33
2023/11/22 16:12:09;;;;;;;3.45;3.03;;;;;;;20.48;62.59;102722.84;5082777;28;20024;-33
2023/11/22 16:14:34;;;;;;;5.07;2.80;;;;;;;20.44;62.63;102713.38;5084779;28;20031;-36
2023/11/22 16:16:59;;;;;;;3.30;3.00;;;;;;;20.41;62.64;102725.72;5085242;28;20067;-35
2023/11/22 16:19:25;;;;;;;4.10;3.20;;;;;;;20.39;62.50;102721.56;5083985;28;20044;-35
2023/11/22 16:21:50;;;;;;;4.90;3.30;;;;;;;20.35;62.75;102723.97;5077041;28;20036;-34
2023/11/22 16:24:16;;;;;;;3.95;2.97;;;;;;;20.32;62.90;102718.97;5082613;28;20112;-42
2023/11/22 16:26:41;;;;;;;5.13;3.05;;;;;;;20.30;63.08;102713.69;5088292;28;20034;-34
2023/11/22 16:29:07;;;;;;;3.38;2.75;;;;;;;20.31;62.90;102703.53;5074574;28;20035;-34
2023/11/22 16:31:32;;;;;;;3.65;2.72;;;;;;;20.34;62.69;102706.63;5083651;28;20059;-34
2023/11/22 16:33:59;;;;;;;4.22;2.92;;;;;;;20.39;63.08;102697.59;5083793;28;20063;-34
2023/11/22 16:36:24;;;;;;;3.28;2.88;;;;;;;20.43;62.81;102698.78;5080320;28;20077;-35
2023/11/22 16:38:51;;;;;;;3.75;2.50;;;;;;;20.49;62.94;102700.53;5112815;27;20032;-33
2023/11/22 16:41:17;;;;;;;3.13;2.72;;;;;;;20.58;62.61;102695.44;5082963;28;20497;-33
2023/11/22 16:43:42;;;;;;;3.30;2.60;;;;;;;20.65;62.80;102690.63;5078611;28;20346;-35
2023/11/22 16:46:08;;;;;;;3.03;2.65;;;;;;;20.74;62.62;102688.31;5078984;28;20126;-33
2023/11/22 16:48:33;;;;;;;4.40;2.80;;;;;;;20.81;62.39;102686.22;5081784;28;20499;-35
2023/11/22 16:50:58;;;;;;;7.15;3.40;;;;;;;20.90;62.50;102685.81;5083791;28;20075;-33
2023/11/22 16:53:24;;;;;;;4.85;3.10;;;;;;;20.96;62.48;102680.09;5081687;28;20048;-35
2023/11/22 16:55:49;;;;;;;3.45;2.72;;;;;;;21.04;62.49;102686.28;5078783;28;20518;-35
2023/11/22 16:58:16;;;;;;;4.97;3.10;;;;;;;21.11;61.99;102689.69;5083089;28;20496;-34
2023/11/22 17:00:44;;;;;;;5.18;3.05;;;;;;;21.15;62.07;102691.69;5082157;28;20042;-33
2023/11/22 17:03:10;;;;;;;5.97;3.65;;;;;;;21.19;61.69;102697.53;5083744;28;20499;-35
2023/11/22 17:05:35;;;;;;;5.50;3.38;;;;;;;21.21;61.56;102686.25;5081738;28;20139;-34
2023/11/22 17:08:03;;;;;;;5.53;3.60;;;;;;;21.21;61.92;102689.81;5077902;28;20138;-33
2023/11/22 17:10:29;;;;;;;5.13;3.30;;;;;;;21.22;61.92;102698.94;5088241;28;20118;-34
2023/11/22 17:12:54;;;;;;;4.55;3.47;;;;;;;21.20;61.77;102693.69;5080784;28;20036;-33
2023/11/22 17:15:20;;;;;;;5.45;3.72;;;;;;;21.16;61.54;102695.28;5082044;28;20028;-34
2023/11/22 17:17:45;;;;;;;5.35;3.67;;;;;;;21.12;61.29;102677.56;5083872;28;20063;-35
2023/11/22 17:20:11;;;;;;;6.22;3.63;;;;;;;21.08;61.42;102681.91;5086199;28;20027;-34
2023/11/22 17:22:36;;;;;;;5.97;3.75;;;;;;;21.04;61.60;102684.38;5087404;28;20068;-34
2023/11/22 17:25:10;;;;;;;4.85;3.55;;;;;;;21.00;61.67;102675.78;5084815;28;20027;-35
2023/11/22 17:27:38;;;;;;;5.55;3.63;;;;;;;20.98;61.87;102675.19;5083582;28;20032;-33
2023/11/22 17:30:05;;;;;;;5.85;3.50;;;;;;;20.96;61.60;102668.25;5084854;28;20015;-35
2023/11/22 17:32:30;;;;;;;6.28;3.65;;;;;;;20.93;61.75;102672.34;5086853;28;20157;-33
2023/11/22 17:34:56;;;;;;;5.93;3.78;;;;;;;20.92;62.09;102672.59;5087388;28;20106;-34
2023/11/22 17:37:21;;;;;;;4.88;3.42;;;;;;;20.87;61.95;102672.50;5084981;28;20266;-33
2023/11/22 17:39:49;;;;;;;4.85;3.40;;;;;;;20.83;61.82;102666.66;5085548;28;20024;-36
2023/11/22 17:42:14;;;;;;;6.20;3.50;;;;;;;20.79;62.10;102668.28;5088936;28;20036;-34
2023/11/22 17:44:40;;;;;;;6.60;4.07;;;;;;;20.77;61.98;102673.19;5086548;28;20056;-34
2023/11/22 17:47:07;;;;;;;7.20;3.83;;;;;;;20.77;62.08;102673.19;5086374;28;20032;-35
2023/11/22 17:49:32;;;;;;;5.80;4.00;;;;;;;20.74;61.71;102677.28;5086577;28;20054;-35
2023/11/22 17:51:58;;;;;;;6.05;3.88;;;;;;;20.73;62.02;102678.38;5084981;28;20596;-34
2023/11/22 17:54:23;;;;;;;7.80;4.35;;;;;;;20.73;62.12;102678.38;5086338;28;20036;-34
2023/11/22 17:56:49;;;;;;;5.47;3.90;;;;;;;20.72;61.96;102676.69;5089214;28;20283;-33
2023/11/22 17:59:15;;;;;;;5.97;4.10;;;;;;;20.74;61.81;102680.03;5085912;28;20359;-34
2023/11/22 18:01:40;;;;;;;7.20;4.50;;;;;;;20.73;61.52;102672.03;5092466;28;20036;-33
2023/11/22 18:04:06;;;;;;;6.68;4.60;;;;;;;20.71;61.68;102666.75;5076535;28;20708;-35
2023/11/22 18:06:32;;;;;;;5.50;4.72;;;;;;;20.71;61.62;102663.16;5086229;28;20434;-33
2023/11/22 18:08:57;;;;;;;8.57;4.57;;;;;;;20.68;61.60;102670.81;5084859;28;20055;-36
2023/11/22 18:11:26;;;;;;;8.35;4.95;;;;;;;20.65;61.58;102652.06;5081485;28;20457;-35
2023/11/22 18:13:52;;;;;;;5.15;4.38;;;;;;;20.62;61.56;102641.53;5091638;28;20467;-36
2023/11/22 18:16:17;;;;;;;6.13;4.10;;;;;;;20.60;61.60;102640.97;5085042;28;20097;-34
2023/11/22 18:18:43;;;;;;;6.90;4.40;;;;;;;20.59;61.46;102652.19;5082265;28;20520;-34
2023/11/22 18:21:09;;;;;;;7.68;4.90;;;;;;;20.58;61.51;102639.53;5086081;28;20168;-34
2023/11/22 18:23:34;;;;;;;9.18;5.07;;;;;;;20.57;61.69;102638.69;5084338;28;20027;-34
2023/11/22 18:26:00;;;;;;;5.32;4.18;;;;;;;20.57;61.66;102635.13;5087069;28;20036;-38
2023/11/22 18:28:25;;;;;;;6.13;4.28;;;;;;;20.58;61.44;102634.84;5085452;28;20031;-36
2023/11/22 18:30:51;;;;;;;5.68;3.97;;;;;;;20.59;61.46;102622.75;5085587;28;20024;-33
2023/11/22 18:33:16;;;;;;;6.47;3.83;;;;;;;20.61;61.40;102619.75;5093221;28;20035;-34
2023/11/22 18:35:41;;;;;;;5.13;3.63;;;;;;;20.62;61.29;102622.22;5091678;28;20028;-33
2023/11/22 18:38:07;;;;;;;5.35;3.90;;;;;;;20.63;61.71;102615.66;5087249;28;20020;-33
2023/11/22 18:40:33;;;;;;;7.03;3.80;;;;;;;20.64;61.46;102622.81;5091000;28;20024;-38
2023/11/22 18:42:59;;;;;;;5.78;3.78;;;;;;;20.64;61.90;102624.75;5083180;28;20016;-37
2023/11/22 18:45:25;;;;;;;6.05;3.78;;;;;;;20.65;61.70;102627.25;5083759;28;20105;-35
2023/11/22 18:47:51;;;;;;;6.00;3.80;;;;;;;20.65;61.53;102630.00;5086194;28;20024;-33
2023/11/22 18:50:16;;;;;;;4.55;3.72;;;;;;;20.63;61.45;102634.94;5079931;28;20403;-33
2023/11/22 18:52:42;;;;;;;6.68;4.05;;;;;;;20.62;61.53;102630.50;5083566;28;20053;-33
2023/11/22 18:55:09;;;;;;;4.28;3.50;;;;;;;20.61;61.63;102637.13;5084310;28;20551;-33
2023/11/22 18:57:35;;;;;;;7.30;3.78;;;;;;;20.58;61.46;102626.59;5082567;28;20029;-35
2023/11/22 19:00:06;;;;;;;5.15;3.80;;;;;;;20.58;61.82;102625.78;5085895;28;20032;-33
2023/11/22 19:02:32;;;;;;;5.60;3.97;;;;;;;20.55;61.62;102624.34;5080376;28;20032;-34
2023/11/22 19:04:58;;;;;;;5.55;4.15;;;;;;;20.52;61.58;102614.66;5080102;28;20555;-32
2023/11/22 19:07:23;;;;;;;6.45;4.93;;;;;;;20.49;61.11;102606.91;5081400;28;20465;-33
2023/11/22 19:09:49;;;;;;;7.55;4.40;;;;;;;20.47;61.29;102614.56;5089614;28;20266;-33
2023/11/22 19:12:14;;;;;;;5.63;4.05;;;;;;;20.46;61.15;102601.06;5106246;27;20042;-32
2023/11/22 19:14:41;;;;;;;7.20;4.63;;;;;;;20.44;61.71;102592.22;5093666;28;20020;-32
2023/11/22 19:17:08;;;;;;;5.97;4.38;;;;;;;20.40;61.54;102599.31;5073593;28;20452;-33
2023/11/22 19:19:34;;;;;;;7.00;4.40;;;;;;;20.36;61.23;102594.28;5077624;28;20058;-33
2023/11/22 19:22:00;;;;;;;7.40;4.10;;;;;;;20.34;61.50;102598.38;5083647;28;20033;-33
2023/11/22 19:24:26;;;;;;;6.35;4.55;;;;;;;20.32;61.49;102584.06;5094492;28;20031;-33
2023/11/22 19:26:53;;;;;;;5.93;3.92;;;;;;;20.29;61.75;102592.81;5096199;28;20118;-33
2023/11/22 19:29:18;;;;;;;8.52;3.92;;;;;;;20.26;61.44;102596.06;5069784;28;20017;-33
2023/11/22 19:31:44;;;;;;;7.85;4.80;;;;;;;20.23;61.57;102593.81;5073141;28;20392;-33
2023/11/22 19:34:11;;;;;;;7.22;4.30;;;;;;;20.20;61.42;102589.63;5098982;28;20488;-33
2023/11/22 19:36:36;;;;;;;5.85;4.25;;;;;;;20.14;61.57;102579.63;5091300;28;20119;-33
2023/11/22 19:39:01;;;;;;;6.30;4.20;;;;;;;20.13;61.56;102577.94;5097560;28;20103;-33
2023/11/22 19:41:29;;;;;;;5.82;4.43;;;;;;;20.12;61.99;102582.63;5094726;28;20515;-33
2023/11/22 19:43:54;;;;;;;6.32;3.97;;;;;;;20.10;61.92;102572.94;5088451;28;20032;-33
2023/11/22 19:46:20;;;;;;;6.53;4.20;;;;;;;20.09;62.24;102580.38;5087279;28;20077;-33
2023/11/22 19:48:45;;;;;;;7.50;4.40;;;;;;;20.08;62.52;102580.63;5094146;28;20655;-33
2023/11/22 19:51:11;;;;;;;5.68;3.88;;;;;;;20.09;62.26;102569.34;5089049;28;20640;-35
2023/11/22 19:53:37;;;;;;;7.55;4.15;;;;;;;20.10;62.48;102571.03;5090923;28;20042;-35
2023/11/22 19:56:03;;;;;;;4.75;3.72;;;;;;;20.11;62.42;102569.09;5090095;28;20031;-35
2023/11/22 19:58:29;;;;;;;6.20;4.13;;;;;;;20.11;62.49;102566.34;5082451;28;20073;-36
2023/11/22 20:00:55;;;;;;;4.30;3.53;;;;;;;20.11;62.35;102563.59;5077403;28;20035;-35
2023/11/22 20:03:20;;;;;;;6.93;3.83;;;;;;;20.14;62.38;102560.34;5095647;28;20020;-35
2023/11/22 20:05:46;;;;;;;5.60;3.70;;;;;;;20.15;62.45;102562.84;5080940;28;20089;-35
2023/11/22 20:08:11;;;;;;;4.25;3.35;;;;;;;20.17;62.48;102557.94;5074741;28;20088;-35
2023/11/22 20:10:40;;;;;;;5.70;3.55;;;;;;;20.20;62.64;102559.34;5077757;28;20202;-35
2023/11/22 20:13:05;;;;;;;4.05;2.95;;;;;;;20.22;62.58;102568.19;5086955;28;20439;-35
2023/11/22 20:15:31;;;;;;;7.18;3.25;;;;;;;20.25;62.77;102555.84;5080619;28;20109;-35